Banos de Copahue, Argentina
Current Conditions -  °F | °C
As of 11:00 AM on Friday 28 Nov 2014 (Local Time) from SCQP Reporting Station
Broken Clouds Broken Clouds  
Wind Chill: 14°   Ceiling: 2000
Heat Index: 14°   Visibility: 6mi
Dew Point: 10°   Wind: 5mph
Humidity: 77%   Direction: 10°N
Pressure: 29.94"   Gusts: NA
Location:  37.8°S, 71.12°W
Report Text: SCQP 281400Z 01004KT 330V060 9999 BKN020 BKN200 14/10 Q1014
Loading
Personal Weather Stations






























Interactive Weather Map New forecast layout! Learn more

10-Day Weather Forecast

Advertisements
Track Severe Weather on mobile